Time;durP1;ratioP1;P1;durP2;ratioP2;P2;SDS_P1;SDS_P2;PMS_P1;PMS_P2;Temp;Humidity;BMP_temperature;BMP_pressure;BME280_temperature;BME280_humidity;BME280_pressure;Samples;Min_cycle;Max_cycle;Signal;HPM_P1;HPM_P2
2022/09/02 00:02:01;;;;;;;1.23;0.50;;;;;;;14.73;85.08;101210.16;5211959;28;20031;-77
2022/09/02 00:04:32;;;;;;;1.70;0.60;;;;;;;14.85;84.27;101204.38;5209881;28;20502;-77
2022/09/02 00:07:02;;;;;;;1.13;0.60;;;;;;;14.42;86.58;101209.72;5210835;28;20040;-77
2022/09/02 00:09:33;;;;;;;1.60;0.70;;;;;;;14.48;86.26;101206.00;5191090;28;20060;-77
2022/09/02 00:12:04;;;;;;;1.13;0.43;;;;;;;14.41;86.16;101207.19;5208719;28;20665;-77
2022/09/02 00:14:37;;;;;;;0.77;0.50;;;;;;;14.20;88.09;101197.50;5198215;28;20192;-77
2022/09/02 00:17:07;;;;;;;1.55;0.50;;;;;;;14.57;86.24;101201.19;5205277;28;20073;-77
2022/09/02 00:19:38;;;;;;;2.10;0.63;;;;;;;14.64;85.45;101201.81;5201470;28;20503;-77
2022/09/02 00:22:08;;;;;;;0.70;0.43;;;;;;;14.55;85.37;101199.53;5210966;28;20371;-77
2022/09/02 00:24:39;;;;;;;1.50;0.60;;;;;;;14.55;85.83;101204.81;5210471;28;20092;-77
2022/09/02 00:27:09;;;;;;;2.35;0.50;;;;;;;14.39;86.53;101201.97;5208583;28;20045;-77
2022/09/02 00:29:39;;;;;;;2.17;0.68;;;;;;;14.37;86.99;101201.19;5208348;28;20029;-78
2022/09/02 00:32:10;;;;;;;0.80;0.43;;;;;;;14.41;85.90;101197.50;5190066;28;20049;-75
2022/09/02 00:34:40;;;;;;;1.58;0.68;;;;;;;14.16;88.07;101193.28;5206392;28;20041;-77
2022/09/02 00:37:12;;;;;;;1.27;0.50;;;;;;;14.25;87.17;101195.56;5205151;28;20025;-77
2022/09/02 00:39:42;;;;;;;2.10;0.60;;;;;;;14.13;87.02;101191.63;5209773;28;20094;-77
2022/09/02 00:42:12;;;;;;;1.33;0.50;;;;;;;13.77;90.66;101197.47;5208243;28;20429;-77
2022/09/02 00:44:43;;;;;;;3.90;0.68;;;;;;;13.75;91.11;101199.31;5199880;28;20025;-77
2022/09/02 00:47:14;;;;;;;1.35;0.60;;;;;;;13.82;89.35;101201.63;5203829;28;20037;-77
2022/09/02 00:49:48;;;;;;;1.55;0.73;;;;;;;13.83;89.73;101194.59;5183942;28;20458;-77
2022/09/02 00:52:48;;;;;;;2.22;0.60;;;;;;;13.67;90.39;101201.34;5209865;28;20544;-77
2022/09/02 00:55:23;;;;;;;2.47;0.60;;;;;;;13.89;89.29;101192.59;5208272;28;20045;-77
2022/09/02 00:58:05;;;;;;;0.60;0.40;;;;;;;13.38;91.98;101199.81;5207388;28;20033;-77
2022/09/02 01:00:41;;;;;;;2.58;0.63;;;;;;;13.23;94.21;101192.50;5223903;22;20412;-71
2022/09/02 01:03:17;;;;;;;4.07;0.70;;;;;;;13.44;92.34;101190.88;5207944;28;20361;-72
2022/09/02 01:05:49;;;;;;;0.77;0.43;;;;;;;13.50;91.60;101188.88;5208751;28;20044;-72
2022/09/02 01:08:33;;;;;;;3.10;0.63;;;;;;;13.65;90.70;101192.69;5209240;28;20383;-72
2022/09/02 01:11:05;;;;;;;1.65;0.60;;;;;;;13.61;91.63;101186.66;5206258;28;20038;-72
2022/09/02 01:13:39;;;;;;;1.67;0.60;;;;;;;13.63;91.74;101178.75;5199489;28;20120;-71
2022/09/02 01:16:11;;;;;;;2.88;0.65;;;;;;;13.77;91.30;101179.06;5204767;28;20087;-71
2022/09/02 01:18:49;;;;;;;2.85;0.70;;;;;;;13.74;90.71;101179.19;5188270;28;20044;-72
2022/09/02 01:21:21;;;;;;;3.75;0.70;;;;;;;13.81;90.31;101176.28;5210576;28;20509;-72
2022/09/02 01:23:53;;;;;;;2.70;0.68;;;;;;;13.74;91.75;101173.94;5208093;28;20021;-71
2022/09/02 01:26:23;;;;;;;1.13;0.57;;;;;;;13.71;90.55;101181.94;5207431;28;20021;-71
2022/09/02 01:28:54;;;;;;;0.55;0.40;;;;;;;13.89;89.40;101165.47;5202057;28;20032;-74
2022/09/02 01:31:24;;;;;;;5.55;0.70;;;;;;;13.57;89.57;101173.75;5210946;28;20075;-74
2022/09/02 01:33:54;;;;;;;1.98;0.50;;;;;;;13.55;88.47;101168.53;5207380;28;20017;-73
2022/09/02 01:36:25;;;;;;;2.35;0.70;;;;;;;13.22;92.25;101167.16;5210794;28;20417;-73
2022/09/02 01:38:55;;;;;;;2.30;0.70;;;;;;;13.24;90.71;101175.84;5209063;28;20531;-74
2022/09/02 01:41:25;;;;;;;0.80;0.47;;;;;;;13.08;93.35;101168.59;5213626;28;20490;-72
2022/09/02 01:43:56;;;;;;;2.72;0.60;;;;;;;13.25;92.18;101171.47;5201096;28;20140;-72
2022/09/02 01:46:26;;;;;;;0.80;0.60;;;;;;;13.35;90.23;101168.44;5207489;28;20183;-71
2022/09/02 01:48:56;;;;;;;3.42;0.60;;;;;;;13.35;92.05;101163.19;5184104;28;20025;-72
2022/09/02 01:51:27;;;;;;;0.93;0.50;;;;;;;13.29;91.78;101167.81;5211830;28;20017;-72
2022/09/02 01:53:58;;;;;;;1.65;0.70;;;;;;;13.17;92.66;101169.13;5214668;28;20397;-72
2022/09/02 01:56:28;;;;;;;0.93;0.50;;;;;;;13.27;92.66;101161.75;5209332;28;20383;-71
2022/09/02 01:58:59;;;;;;;3.80;0.70;;;;;;;12.89;95.11;101163.09;5213887;28;20040;-72
2022/09/02 02:01:29;;;;;;;2.25;0.60;;;;;;;12.78;95.48;101161.78;5211238;28;20099;-72
2022/09/02 02:04:00;;;;;;;1.05;0.60;;;;;;;12.75;97.10;101161.88;5214460;28;20024;-72
2022/09/02 02:06:30;;;;;;;1.42;0.50;;;;;;;12.62;97.05;101154.50;5211146;28;20041;-71
2022/09/02 02:09:01;;;;;;;0.68;0.50;;;;;;;12.83;95.98;101154.59;5213709;28;20501;-72
2022/09/02 02:11:31;;;;;;;1.55;0.60;;;;;;;13.13;93.98;101153.53;5211610;28;20033;-71
2022/09/02 02:14:01;;;;;;;0.70;0.40;;;;;;;12.97;96.54;101148.91;5207392;28;20032;-72
2022/09/02 02:16:32;;;;;;;1.30;0.70;;;;;;;13.05;93.43;101153.81;5202275;28;20487;-71
2022/09/02 02:19:04;;;;;;;1.50;0.70;;;;;;;12.88;94.02;101150.06;5201449;28;20029;-72
2022/09/02 02:21:34;;;;;;;1.10;0.68;;;;;;;12.57;97.81;101159.03;5211911;28;20028;-71
2022/09/02 02:24:06;;;;;;;3.70;0.68;;;;;;;12.37;98.22;101151.00;5196221;28;20025;-72
2022/09/02 02:26:37;;;;;;;1.45;0.60;;;;;;;12.68;97.13;101163.03;5191873;28;20040;-71
2022/09/02 02:29:07;;;;;;;1.35;0.60;;;;;;;12.87;94.11;101156.22;5201529;28;20025;-72
2022/09/02 02:31:39;;;;;;;3.70;0.52;;;;;;;12.77;95.35;101151.34;5210369;28;20025;-72
2022/09/02 02:34:09;;;;;;;1.23;0.60;;;;;;;12.78;95.73;101151.28;5195482;28;20047;-72
2022/09/02 02:36:39;;;;;;;4.47;0.57;;;;;;;12.72;97.31;101148.88;5211217;28;20022;-72
2022/09/02 02:39:11;;;;;;;1.75;0.70;;;;;;;12.83;95.74;101148.50;5212160;28;20052;-72
2022/09/02 02:41:41;;;;;;;1.83;0.55;;;;;;;12.84;97.13;101137.94;5211085;28;20029;-72
2022/09/02 02:44:12;;;;;;;1.23;0.60;;;;;;;13.02;94.70;101139.94;5208060;28;20029;-72
2022/09/02 02:46:42;;;;;;;3.75;0.80;;;;;;;12.83;96.70;101138.00;5201161;28;20036;-71
2022/09/02 02:49:13;;;;;;;1.60;0.80;;;;;;;12.81;97.43;101140.69;5200952;28;20100;-72
2022/09/02 02:51:43;;;;;;;1.08;0.60;;;;;;;12.64;98.16;101140.41;5212499;28;20026;-72
2022/09/02 02:54:14;;;;;;;3.50;0.85;;;;;;;12.53;98.81;101146.94;5211798;28;20031;-72
2022/09/02 02:56:44;;;;;;;0.73;0.50;;;;;;;12.27;100.00;101136.50;5210406;28;20047;-72
2022/09/02 02:59:14;;;;;;;2.35;0.75;;;;;;;12.44;99.07;101136.78;5210228;28;20095;-72
2022/09/02 03:01:45;;;;;;;2.58;0.70;;;;;;;12.54;96.55;101141.66;5212030;28;20032;-73
2022/09/02 03:04:15;;;;;;;1.95;0.60;;;;;;;12.54;97.04;101133.78;5211355;28;20060;-72
2022/09/02 03:06:46;;;;;;;1.95;0.75;;;;;;;12.74;94.85;101136.56;5211847;28;20025;-72
2022/09/02 03:09:19;;;;;;;1.27;0.60;;;;;;;12.63;93.33;101138.69;5211616;28;20104;-73
2022/09/02 03:11:49;;;;;;;0.95;0.55;;;;;;;12.44;94.47;101135.00;5212409;28;20029;-73
2022/09/02 03:14:20;;;;;;;1.20;0.73;;;;;;;12.19;93.45;101131.50;5204646;28;20026;-72
2022/09/02 03:16:51;;;;;;;3.17;0.80;;;;;;;11.99;98.15;101133.91;5199826;28;20461;-72
2022/09/02 03:19:22;;;;;;;0.90;0.60;;;;;;;11.98;97.93;101126.94;5201114;28;20426;-72
2022/09/02 03:21:52;;;;;;;1.75;0.60;;;;;;;11.97;98.59;101135.72;5195793;28;20102;-72
2022/09/02 03:24:22;;;;;;;1.98;0.60;;;;;;;11.79;100.00;101127.63;5209954;28;20029;-72
2022/09/02 03:26:53;;;;;;;1.48;0.75;;;;;;;11.93;100.00;101123.63;5212128;28;20110;-72
2022/09/02 03:29:23;;;;;;;1.60;0.80;;;;;;;12.12;97.90;101124.75;5208629;28;20120;-72
2022/09/02 03:31:53;;;;;;;1.50;0.70;;;;;;;11.93;98.24;101122.78;5195266;28;20036;-72
2022/09/02 03:34:24;;;;;;;2.53;0.60;;;;;;;11.59;100.00;101125.59;5209641;28;20032;-72
2022/09/02 03:36:54;;;;;;;1.27;0.73;;;;;;;11.42;100.00;101120.00;5212204;28;20024;-72
2022/09/02 03:39:24;;;;;;;1.67;0.77;;;;;;;11.20;100.00;101124.16;5208902;28;20053;-73
2022/09/02 03:41:55;;;;;;;2.55;1.00;;;;;;;11.15;100.00;101118.22;5208775;28;20060;-72
2022/09/02 03:44:25;;;;;;;2.47;0.70;;;;;;;11.49;100.00;101123.28;5206715;28;20530;-72
2022/09/02 03:46:55;;;;;;;1.02;0.60;;;;;;;11.58;97.40;101121.28;5197332;28;20106;-72
2022/09/02 03:49:29;;;;;;;0.93;0.57;;;;;;;11.69;96.54;101119.19;5200288;28;20025;-72
2022/09/02 03:51:59;;;;;;;1.60;0.80;;;;;;;11.67;97.00;101125.38;5212619;28;20051;-72
2022/09/02 03:54:29;;;;;;;1.90;0.90;;;;;;;11.52;95.96;101123.19;5209525;28;20029;-74
2022/09/02 03:57:00;;;;;;;2.10;0.85;;;;;;;11.36;99.45;101122.81;5209304;28;20036;-72
2022/09/02 03:59:30;;;;;;;1.63;0.70;;;;;;;11.34;100.00;101131.59;5208906;28;20175;-72
2022/09/02 04:02:01;;;;;;;1.55;0.65;;;;;;;11.09;100.00;101126.22;5193700;28;20076;-73
2022/09/02 04:04:32;;;;;;;1.15;0.70;;;;;;;11.29;100.00;101129.09;5206839;28;20225;-74
2022/09/02 04:07:03;;;;;;;1.00;0.60;;;;;;;11.31;100.00;101132.53;5203167;28;20024;-74
2022/09/02 04:09:33;;;;;;;1.48;0.80;;;;;;;11.47;96.96;101131.16;5204202;28;20029;-72
2022/09/02 04:12:04;;;;;;;1.10;0.60;;;;;;;11.33;99.27;101127.25;5205137;28;20026;-73
2022/09/02 04:14:34;;;;;;;3.83;0.73;;;;;;;10.97;100.00;101132.69;5185500;28;20391;-72
2022/09/02 04:17:05;;;;;;;3.00;0.80;;;;;;;11.10;100.00;101132.31;5199468;28;20069;-72
2022/09/02 04:19:36;;;;;;;1.23;0.73;;;;;;;10.93;98.53;101133.69;5200021;28;20037;-71
2022/09/02 04:22:07;;;;;;;1.55;0.70;;;;;;;10.96;100.00;101142.31;5210871;28;20024;-74
2022/09/02 04:24:37;;;;;;;0.65;0.55;;;;;;;11.19;99.21;101138.16;5210204;28;20014;-73
2022/09/02 04:27:08;;;;;;;6.40;0.90;;;;;;;10.82;100.00;101133.16;5192020;28;20021;-71
2022/09/02 04:29:38;;;;;;;1.95;0.70;;;;;;;10.78;100.00;101124.53;5209858;28;20494;-72
2022/09/02 04:32:08;;;;;;;1.70;0.60;;;;;;;10.77;100.00;101129.78;5209971;28;20060;-74
2022/09/02 04:34:38;;;;;;;1.40;0.80;;;;;;;10.69;100.00;101129.16;5209916;28;20028;-73
2022/09/02 04:37:09;;;;;;;3.50;1.00;;;;;;;10.78;100.00;101134.97;5207351;28;20029;-74
2022/09/02 04:39:39;;;;;;;3.05;0.90;;;;;;;10.97;100.00;101130.94;5208088;28;20025;-74
2022/09/02 04:42:10;;;;;;;1.55;0.80;;;;;;;11.01;99.36;101135.19;5204748;28;20021;-74
2022/09/02 04:44:40;;;;;;;1.48;0.70;;;;;;;10.81;100.00;101134.03;5205326;28;20615;-74
2022/09/02 04:47:11;;;;;;;2.53;0.57;;;;;;;11.06;100.00;101130.66;5204308;28;20479;-73
2022/09/02 04:49:42;;;;;;;2.60;0.80;;;;;;;11.15;100.00;101127.81;5209205;28;20395;-74
2022/09/02 04:52:12;;;;;;;4.05;0.88;;;;;;;11.12;100.00;101126.13;5208673;28;20036;-74
2022/09/02 04:54:42;;;;;;;1.27;0.73;;;;;;;11.31;100.00;101129.91;5206875;28;20368;-74
2022/09/02 04:57:13;;;;;;;2.67;1.15;;;;;;;11.41;100.00;101133.97;5199194;28;20021;-73
2022/09/02 04:59:44;;;;;;;1.60;0.70;;;;;;;11.62;99.51;101128.13;5203486;28;20029;-74
2022/09/02 05:02:14;;;;;;;3.08;0.82;;;;;;;11.75;97.09;101134.69;5208129;28;20029;-74
2022/09/02 05:04:45;;;;;;;1.20;0.73;;;;;;;11.67;97.43;101141.94;5210410;28;20036;-73
2022/09/02 05:07:15;;;;;;;5.80;1.27;;;;;;;11.78;94.88;101133.75;5206744;28;20033;-74
2022/09/02 05:09:45;;;;;;;1.90;0.90;;;;;;;11.54;97.33;101127.47;5210010;28;20112;-74
2022/09/02 05:12:17;;;;;;;2.72;1.10;;;;;;;11.54;97.39;101137.06;5208470;28;20064;-73
2022/09/02 05:14:47;;;;;;;3.45;1.02;;;;;;;11.74;98.59;101132.13;5203381;28;20021;-73
2022/09/02 05:17:18;;;;;;;2.83;0.80;;;;;;;11.78;99.42;101131.97;5198707;28;20028;-72
2022/09/02 05:19:48;;;;;;;3.15;0.98;;;;;;;11.72;99.47;101133.94;5201522;28;20017;-73
2022/09/02 05:22:18;;;;;;;3.55;1.05;;;;;;;11.84;98.49;101123.94;5208587;28;20136;-74
2022/09/02 05:24:49;;;;;;;2.17;0.90;;;;;;;13.14;91.90;101121.13;5192238;28;20033;-73
2022/09/02 05:27:19;;;;;;;3.83;0.77;;;;;;;14.38;84.36;101121.34;5205050;28;20055;-73
2022/09/02 05:29:53;;;;;;;3.85;0.70;;;;;;;14.25;85.18;101121.94;5206203;28;20035;-73
2022/09/02 05:32:23;;;;;;;2.97;0.77;;;;;;;13.76;86.97;101123.03;5205010;28;20017;-73
2022/09/02 05:34:54;;;;;;;2.22;0.90;;;;;;;13.06;92.31;101128.44;5208302;28;20047;-73
2022/09/02 05:37:25;;;;;;;1.88;0.82;;;;;;;12.41;95.41;101127.25;5199203;28;20021;-73
2022/09/02 05:39:55;;;;;;;2.15;0.80;;;;;;;12.55;97.40;101119.78;5200141;28;20036;-73
2022/09/02 05:42:26;;;;;;;4.28;1.10;;;;;;;12.93;92.79;101128.00;5199260;28;20076;-72
2022/09/02 05:44:56;;;;;;;3.30;1.00;;;;;;;12.86;95.81;101125.66;5205350;28;20025;-73
2022/09/02 05:47:26;;;;;;;1.90;0.90;;;;;;;12.77;95.90;101125.13;5202257;28;20312;-72
2022/09/02 05:49:57;;;;;;;1.55;0.80;;;;;;;12.85;96.84;101118.66;5202863;28;20060;-73
2022/09/02 05:52:27;;;;;;;4.28;1.08;;;;;;;12.68;100.00;101123.69;5207317;28;20504;-73
2022/09/02 05:54:59;;;;;;;2.53;1.25;;;;;;;12.93;99.59;101121.91;5211257;28;20025;-73
2022/09/02 05:57:29;;;;;;;2.50;1.00;;;;;;;13.00;97.24;101129.50;5206671;28;20164;-73
2022/09/02 06:00:00;;;;;;;4.20;1.20;;;;;;;13.03;98.55;101115.44;5210425;28;20111;-72
2022/09/02 06:02:30;;;;;;;2.55;0.95;;;;;;;13.37;96.57;101116.72;5208032;28;20107;-73
2022/09/02 06:05:00;;;;;;;3.08;1.10;;;;;;;13.55;94.52;101099.41;5210453;28;20538;-73
2022/09/02 06:07:31;;;;;;;2.55;0.80;;;;;;;13.52;92.74;101115.25;5197661;28;20030;-72
2022/09/02 06:10:02;;;;;;;2.78;1.08;;;;;;;13.61;94.58;101107.88;5203306;28;20025;-73
2022/09/02 06:12:32;;;;;;;3.00;1.30;;;;;;;13.65;94.77;101112.13;5210279;28;20067;-73
2022/09/02 06:15:03;;;;;;;5.53;1.10;;;;;;;13.54;94.17;101113.47;5208106;28;20021;-73
2022/09/02 06:17:34;;;;;;;1.85;0.85;;;;;;;13.62;96.89;101116.63;5202024;28;20121;-73
2022/09/02 06:20:04;;;;;;;3.38;1.10;;;;;;;13.70;93.43;101115.41;5205073;28;20036;-73
2022/09/02 06:22:34;;;;;;;4.25;1.20;;;;;;;13.54;93.88;101110.84;5207488;28;20067;-72
2022/09/02 06:25:05;;;;;;;4.75;1.20;;;;;;;13.98;91.72;101107.25;5211375;28;20025;-73
2022/09/02 06:27:36;;;;;;;2.25;0.85;;;;;;;14.25;90.52;101108.78;5208918;28;20092;-73
2022/09/02 06:30:07;;;;;;;4.00;1.40;;;;;;;14.30;90.13;101114.72;5207155;28;20021;-73
2022/09/02 06:32:37;;;;;;;4.75;1.13;;;;;;;14.52;89.11;101113.75;5213149;28;20033;-73
2022/09/02 06:35:09;;;;;;;2.63;1.10;;;;;;;14.33;90.13;101118.06;5194521;28;20056;-72
2022/09/02 06:37:40;;;;;;;2.75;1.20;;;;;;;14.42;90.09;101117.66;5210881;28;20025;-72
2022/09/02 06:40:12;;;;;;;3.38;1.10;;;;;;;14.35;89.98;101121.50;5210271;28;20145;-73
2022/09/02 06:42:43;;;;;;;4.90;1.50;;;;;;;14.63;90.39;101116.75;5212241;28;20029;-74
2022/09/02 06:45:13;;;;;;;4.50;1.20;;;;;;;14.93;86.80;101110.13;5213176;28;20024;-73
2022/09/02 06:47:44;;;;;;;4.13;1.30;;;;;;;15.87;84.32;101112.72;5204599;28;20029;-73
2022/09/02 06:50:15;;;;;;;5.32;1.13;;;;;;;18.49;77.48;101096.53;5205426;28;20025;-74
2022/09/02 06:52:45;;;;;;;2.25;1.02;;;;;;;20.93;68.71;101091.06;5210971;28;20040;-74
2022/09/02 06:55:16;;;;;;;2.15;0.80;;;;;;;20.84;69.65;101097.03;5212683;28;20060;-74
2022/09/02 06:57:47;;;;;;;2.17;0.90;;;;;;;19.07;71.67;101100.84;5209022;28;20462;-74
2022/09/02 07:00:17;;;;;;;2.60;0.82;;;;;;;18.58;71.92;101100.44;5211328;28;20029;-73
2022/09/02 07:05:08;;;;;;;8.52;1.08;;;;;;;21.20;65.52;101094.47;5210553;28;20024;-74
2022/09/02 07:05:38;;;;;;;3.00;0.90;;;;;;;21.78;65.39;101089.31;5209767;28;20470;-74
2022/09/02 07:08:09;;;;;;;2.05;0.85;;;;;;;23.53;60.20;101086.22;5209926;28;20044;-72
2022/09/02 07:10:40;;;;;;;2.17;0.77;;;;;;;24.63;56.90;101097.41;5211836;28;20467;-72
2022/09/02 07:13:10;;;;;;;1.30;0.60;;;;;;;27.00;53.57;101074.59;5211642;28;20030;-72
2022/09/02 07:15:41;;;;;;;3.20;0.93;;;;;;;28.03;50.87;101084.09;5211686;28;20032;-72
2022/09/02 07:18:11;;;;;;;2.83;0.82;;;;;;;25.84;53.35;101091.03;5201340;28;20063;-71
2022/09/02 07:20:45;;;;;;;4.05;0.80;;;;;;;26.38;54.59;101084.13;5207436;28;20025;-71
2022/09/02 07:23:15;;;;;;;2.88;0.88;;;;;;;26.18;55.47;101087.00;5211613;28;21007;-72
2022/09/02 07:25:46;;;;;;;2.28;0.80;;;;;;;25.45;54.97;101091.91;5211547;28;20320;-72
2022/09/02 07:28:17;;;;;;;3.80;0.93;;;;;;;26.65;53.95;101086.97;5210418;28;20045;-72
2022/09/02 07:30:47;;;;;;;3.10;0.80;;;;;;;26.53;53.90;101081.91;5209729;28;20029;-72
2022/09/02 07:33:18;;;;;;;2.25;0.85;;;;;;;29.44;49.47;101072.84;5212577;28;20053;-72
2022/09/02 07:35:50;;;;;;;2.35;1.00;;;;;;;25.84;54.47;101082.97;5208744;28;20049;-70
2022/09/02 07:38:21;;;;;;;3.20;0.70;;;;;;;28.63;50.49;101077.94;5210932;28;20576;-72
2022/09/02 07:40:51;;;;;;;2.78;0.90;;;;;;;27.64;51.55;101078.09;5210102;28;20033;-72
2022/09/02 07:43:21;;;;;;;3.97;1.00;;;;;;;28.66;50.18;101062.28;5205137;28;20029;-72
2022/09/02 07:45:54;;;;;;;7.32;1.35;;;;;;;25.61;54.58;101078.81;5212603;28;20634;-72
2022/09/02 07:48:26;;;;;;;4.55;0.95;;;;;;;28.47;51.83;101070.56;5199503;28;20033;-72
2022/09/02 07:50:57;;;;;;;4.82;1.33;;;;;;;29.12;49.17;101070.00;5207088;28;20060;-72
2022/09/02 07:53:28;;;;;;;2.45;0.80;;;;;;;29.13;48.59;101064.47;5209490;28;20509;-72
2022/09/02 07:55:59;;;;;;;3.20;0.90;;;;;;;29.67;48.74;101053.25;5212343;28;20417;-71
2022/09/02 07:58:30;;;;;;;2.78;0.65;;;;;;;30.54;47.30;101058.91;5208472;28;20037;-72
2022/09/02 08:01:00;;;;;;;2.83;0.90;;;;;;;28.19;50.58;101060.91;5211075;28;20390;-72
2022/09/02 08:03:32;;;;;;;2.22;0.70;;;;;;;31.06;46.92;101055.63;5211900;28;20572;-72
2022/09/02 08:06:03;;;;;;;2.10;0.75;;;;;;;28.83;49.73;101064.09;5209299;28;20021;-71
2022/09/02 08:08:33;;;;;;;4.28;1.00;;;;;;;31.25;45.81;101047.13;5192558;28;20479;-71
2022/09/02 08:11:04;;;;;;;6.15;0.90;;;;;;;29.23;47.84;101056.28;5209423;28;20029;-71
2022/09/02 08:13:36;;;;;;;4.82;0.70;;;;;;;31.04;46.36;101052.25;5211489;28;20082;-71
2022/09/02 08:16:06;;;;;;;3.88;0.63;;;;;;;29.39;47.85;101061.72;5192323;28;20099;-71
2022/09/02 08:18:37;;;;;;;3.55;0.77;;;;;;;28.48;49.04;101061.50;5198803;28;20025;-71
2022/09/02 08:21:07;;;;;;;4.10;0.85;;;;;;;27.55;51.39;101062.91;5208430;28;20441;-71
2022/09/02 08:23:37;;;;;;;1.92;0.90;;;;;;;28.41;49.44;101062.28;5209751;28;20450;-71
2022/09/02 08:26:08;;;;;;;3.23;0.80;;;;;;;27.06;51.81;101060.56;5210242;28;20474;-71
2022/09/02 08:28:39;;;;;;;3.00;0.80;;;;;;;27.85;49.84;101062.59;5209951;28;20334;-71
2022/09/02 08:31:09;;;;;;;4.30;0.80;;;;;;;27.47;50.19;101057.41;5192417;28;20044;-71
2022/09/02 08:33:39;;;;;;;2.60;0.70;;;;;;;26.30;52.13;101064.38;5209704;28;20017;-71
2022/09/02 08:36:10;;;;;;;2.63;0.90;;;;;;;25.05;53.56;101069.59;5203542;28;20498;-70
2022/09/02 08:38:41;;;;;;;2.78;1.00;;;;;;;26.62;51.07;101049.72;5205743;28;20017;-70
2022/09/02 08:41:25;;;;;;;2.08;0.55;;;;;;;26.61;52.26;101053.38;5209206;28;20107;-71
2022/09/02 08:43:59;;;;;;;4.05;0.80;;;;;;;26.96;51.42;101054.38;5203873;28;20313;-71
2022/09/02 08:46:31;;;;;;;2.83;0.82;;;;;;;26.69;50.25;101049.97;5208096;28;20472;-71
2022/09/02 08:49:37;;;;;;;3.95;0.93;;;;;;;26.25;51.91;101050.56;5180940;28;20052;-70
2022/09/02 08:52:14;;;;;;;2.63;0.70;;;;;;;25.85;50.81;101047.19;5206159;28;20275;-70
2022/09/02 08:54:50;;;;;;;3.42;0.73;;;;;;;26.73;49.85;101036.13;5209368;28;20487;-71
2022/09/02 08:57:24;;;;;;;;;;;;;;;26.66;50.12;101039.53;5192526;28;20057;-71
2022/09/02 08:59:57;;;;;;;3.10;0.77;;;;;;;26.99;48.57;101038.00;5207384;28;20158;-71
2022/09/02 09:02:56;;;;;;;2.83;0.60;;;;;;;26.69;49.27;101040.06;5204472;28;20021;-71
2022/09/02 09:05:31;;;;;;;4.25;0.70;;;;;;;26.54;49.56;101036.16;5203898;28;20048;-71
2022/09/02 09:08:11;;;;;;;3.95;0.82;;;;;;;26.86;48.55;101045.53;5198020;28;20033;-70
2022/09/02 09:11:00;;;;;;;3.83;0.80;;;;;;;26.38;49.56;101037.72;5210001;28;20038;-70
2022/09/02 09:13:40;;;;;;;1.73;0.70;;;;;;;26.22;49.58;101032.97;5204771;28;20052;-70
2022/09/02 09:16:20;;;;;;;4.45;0.60;;;;;;;26.56;49.28;101031.53;5210289;28;20431;-70
2022/09/02 09:19:00;;;;;;;2.63;0.65;;;;;;;26.78;49.14;101026.63;5197771;28;20021;-71
2022/09/02 09:21:32;;;;;;;2.85;0.60;;;;;;;26.30;49.41;101030.38;5204839;28;20394;-71
2022/09/02 09:24:20;;;;;;;1.77;0.70;;;;;;;25.93;48.68;101028.56;5207974;28;20029;-70
2022/09/02 09:26:52;;;;;;;4.68;0.73;;;;;;;27.11;48.92;101018.03;5202845;28;20110;-71
2022/09/02 09:29:23;;;;;;;3.88;0.65;;;;;;;25.59;49.68;101019.22;5202376;28;20279;-70
2022/09/02 09:31:57;;;;;;;1.58;0.47;;;;;;;24.88;50.69;101027.44;5208754;28;20072;-73
2022/09/02 09:34:52;;;;;;;1.65;0.68;;;;;;;24.25;51.84;101022.22;5202674;28;20044;-72
2022/09/02 09:37:41;;;;;;;1.87;0.60;;;;;;;24.05;52.33;101012.38;5181380;28;20036;-72
2022/09/02 09:40:19;;;;;;;2.75;0.80;;;;;;;23.74;53.59;101015.06;5207526;28;20021;-73
2022/09/02 09:43:01;;;;;;;4.35;0.90;;;;;;;23.59;53.83;101006.50;5205917;28;20039;-72
2022/09/02 09:45:33;;;;;;;1.27;0.38;;;;;;;23.83;53.57;101014.31;5206885;28;20100;-72
2022/09/02 09:48:16;;;;;;;0.98;0.50;;;;;;;23.69;53.40;101007.41;5199542;28;20111;-72
2022/09/02 09:51:07;;;;;;;1.40;0.60;;;;;;;23.58;53.22;101004.81;5207813;28;20116;-73
2022/09/02 09:53:38;;;;;;;3.15;1.02;;;;;;;23.30;54.83;101001.81;5206361;28;20492;-72
2022/09/02 09:56:14;;;;;;;2.28;0.80;;;;;;;23.75;53.86;100990.91;5208764;28;20031;-72
2022/09/02 09:58:46;;;;;;;3.60;0.70;;;;;;;24.01;53.10;100991.44;5209646;28;20092;-72
2022/09/02 10:01:22;;;;;;;9.63;0.70;;;;;;;23.45;53.52;100998.78;5212146;28;20022;-72
2022/09/02 10:03:54;;;;;;;2.85;0.80;;;;;;;23.55;53.60;100990.84;5213831;28;20032;-73
2022/09/02 10:06:30;;;;;;;2.00;0.60;;;;;;;23.66;53.88;100986.31;5205450;28;20376;-72
2022/09/02 10:09:13;;;;;;;1.67;0.75;;;;;;;23.35;53.77;100987.16;5205030;28;20521;-72
2022/09/02 10:11:58;;;;;;;3.78;1.00;;;;;;;23.48;53.94;100990.50;5212676;28;20025;-73
2022/09/02 10:14:39;;;;;;;3.17;0.60;;;;;;;23.41;54.18;100992.00;5208416;28;20049;-73
2022/09/02 10:17:18;;;;;;;2.42;0.75;;;;;;;23.25;53.36;100991.56;5208096;28;20033;-73
2022/09/02 10:19:58;;;;;;;2.67;0.70;;;;;;;23.06;53.36;100990.44;5210984;28;20036;-72
2022/09/02 10:22:31;;;;;;;1.35;0.70;;;;;;;23.20;53.69;100972.38;5205728;28;20061;-72
2022/09/02 10:25:36;;;;;;;2.33;0.55;;;;;;;23.41;54.04;100975.13;5213959;28;20028;-73
2022/09/02 10:28:38;;;;;;;4.20;0.93;;;;;;;23.46;53.57;100967.59;5208448;28;20506;-72
2022/09/02 10:32:02;;;;;;;3.03;0.75;;;;;;;23.30;54.45;100976.00;5163884;28;20046;-73
2022/09/02 10:34:53;;;;;;;2.17;0.68;;;;;;;23.27;54.58;100980.75;5118592;29;20739;-73
2022/09/02 10:37:31;;;;;;;1.52;0.60;;;;;;;23.47;53.11;100975.47;5200733;28;20033;-72
2022/09/02 10:40:18;;;;;;;4.32;0.70;;;;;;;23.38;54.72;100976.22;5191018;28;20040;-72
2022/09/02 10:43:04;;;;;;;1.85;0.88;;;;;;;22.93;53.07;100966.59;5212920;28;20086;-73
2022/09/02 10:45:45;;;;;;;1.83;0.77;;;;;;;23.27;53.61;100968.25;5209195;28;20013;-72
2022/09/02 10:48:34;;;;;;;4.10;0.90;;;;;;;23.12;53.82;100964.16;5202360;28;20076;-72
2022/09/02 10:51:13;;;;;;;3.22;0.60;;;;;;;23.40;52.61;100968.94;5210007;28;20021;-73
2022/09/02 10:54:08;;;;;;;1.75;0.70;;;;;;;23.52;52.62;100965.25;5212148;28;20025;-72
2022/09/02 10:56:51;;;;;;;2.40;0.52;;;;;;;23.31;51.42;100963.50;5209333;28;20483;-71
2022/09/02 10:59:31;;;;;;;0.95;0.50;;;;;;;23.37;51.75;100953.19;5211287;28;20037;-73
2022/09/02 11:02:31;;;;;;;4.72;0.60;;;;;;;23.40;51.89;100958.25;5189769;28;20177;-73
2022/09/02 11:05:06;;;;;;;1.30;0.50;;;;;;;23.38;51.82;100962.88;5205597;28;20044;-73
2022/09/02 11:07:45;;;;;;;1.98;0.80;;;;;;;23.23;50.69;100966.78;5199613;28;20056;-72
2022/09/02 11:10:30;;;;;;;1.17;0.50;;;;;;;23.05;51.68;100957.59;5192817;28;20393;-72
2022/09/02 11:13:06;;;;;;;3.47;0.63;;;;;;;23.13;52.38;100949.84;5207017;28;20036;-73
2022/09/02 11:15:46;;;;;;;3.63;0.70;;;;;;;23.29;51.29;100949.44;5210326;28;20107;-72
2022/09/02 11:18:34;;;;;;;5.22;0.77;;;;;;;23.36;51.47;100934.63;5183413;28;20021;-73
2022/09/02 11:21:20;;;;;;;1.75;0.60;;;;;;;23.16;51.25;100943.44;5207911;28;20033;-72
2022/09/02 11:24:03;;;;;;;3.90;0.68;;;;;;;23.14;51.48;100932.00;5212189;28;20367;-72
2022/09/02 11:26:52;;;;;;;5.07;0.80;;;;;;;23.39;52.68;100932.53;5206407;28;20041;-73
2022/09/02 11:29:50;;;;;;;4.15;0.90;;;;;;;23.43;51.36;100935.81;5208339;28;20033;-73
2022/09/02 11:32:44;;;;;;;3.72;0.60;;;;;;;23.32;51.35;100907.34;5207498;28;20047;-72
2022/09/02 11:35:37;;;;;;;3.17;0.70;;;;;;;23.18;51.27;100917.47;5209007;28;20048;-73
2022/09/02 11:38:33;;;;;;;1.92;0.70;;;;;;;23.39;52.52;100913.88;5196814;28;20033;-72
2022/09/02 11:41:20;;;;;;;5.00;0.80;;;;;;;23.43;51.76;100918.00;5206984;28;20033;-72
2022/09/02 11:44:05;;;;;;;3.15;0.65;;;;;;;23.61;52.39;100927.13;5207910;28;20447;-73
2022/09/02 11:46:45;;;;;;;2.60;0.80;;;;;;;23.45;51.34;100910.72;5204693;28;20061;-72
2022/09/02 11:49:24;;;;;;;4.20;0.85;;;;;;;23.44;52.24;100911.69;5208961;28;20820;-73
2022/09/02 11:51:54;;;;;;;3.30;0.80;;;;;;;23.51;51.53;100904.03;5190871;28;20499;-72
2022/09/02 11:54:31;;;;;;;2.73;0.80;;;;;;;23.42;51.42;100907.44;5210063;28;20036;-73
2022/09/02 11:57:04;;;;;;;3.92;0.80;;;;;;;23.44;50.79;100909.03;5203567;28;20367;-73